Active alerts

Dallas County
  Details for Dallas County River Flood Warning
Denton County
  Details for Denton County 
Tarrant County
  Details for Tarrant County 

Flower Mound more information Flower Mound


Coppell more information Coppell


I-35W at Alliance Airport more information I-35W at Alliance Airport


FM114 @ DFW North Entrance more information FM114 @ DFW North Entrance



 DALLAS COUNTY  -  River Flood Warning River Flood Warning      

Nearby METAR Reports

   
KCVG - Florence, KY
Updated: Feb 22 2018 1:52 pm
Overcast  
Overcast  
   Wind: ENE 11.5 mph
Wind: ENE 11.5 mph
Temperature: 44.6°F
Wind Chill: 39.2°F
Dew Point: 42.8°F
Humidity: 93%
Barometer: 30.38 inHg
Clouds: Overcast
Visibility: 10 mi
Cloud details: Overcast 305 m
KCVG 221952Z 07010KT 10SM OVC010 07/06 A3038 RMK AO2 SLP291 T00720056
KBOS - Boston, MA
Updated: Feb 22 2018 2:34 pm
Light Snow, Overcast  
Light Snow, Overcast  
   Wind: NE 9.2 mph
Wind: NE 9.2 mph
Temperature: 33.8°F
Wind Chill: 26.6°F
Dew Point: 26.6°F
Humidity: 75%
Barometer: 30.65 inHg
Clouds: Overcast
Visibility: 1 mi
Cloud details: Mostly Cloudy 823 m,
Overcast 1036 m
KBOS 222034Z 04008KT 1 1/4SM R04R/5000VP6000FT -SN BKN027 OVC034 01/M03 A3065 RMK AO2 TWR VIS 3 PLE21 PRESRR P0000 T00111028 $
KRDU - Raliegh, NC
Updated: Feb 22 2018 1:51 pm
Partly Cloudy  
Partly Cloudy  
   Wind: SSW 15 mph
Wind: SSW 15 mph
Temperature: 75.2°F
Dew Point: 62.6°F
Humidity: 65%
Barometer: 30.39 inHg
Clouds: Partly Cloudy
Visibility: 10 mi
Cloud details: Partly Cloudy 1006 m,
Partly Cloudy 1372 m,
Partly Cloudy 7620 m
KRDU 221951Z 21013KT 10SM SCT033 SCT045 SCT250 24/17 A3039 RMK AO2 SLP286 T02440167
KFDW - Grapevine, TX
Updated: Feb 22 2018 2:55 pm
Mostly Cloudy  
Mostly Cloudy  
   Wind: SE 4.6 mph
Wind: SE 4.6 mph
Temperature: 77°F
Dew Point: 60.8°F
Humidity: 57%
Barometer: 30.38 inHg
Clouds: Mostly Cloudy
Visibility: 10 mi
Cloud details: Partly Cloudy 1189 m,
Mostly Cloudy 1402 m,
Mostly Cloudy 1829 m
KFDW 222055Z AUTO 14004KT 10SM SCT039 BKN046 BKN060 25/16 A3038 RMK AO1
  

Script developed by  Saratoga-weather.org Adapted for the template by  Weerstation Leuven

You find our weather info also at:

WeatherCloud

Weather Underground

Mid South Weather Network

WeatherlinkIP

Citizen Weather Observer Program (CWOP)

HAMweather, WeatherForYou, PWS Weather

Equipment we use:

Weather-station
Davis Vantage Pro 2

Weather-program
Weather Display

Weather-server
Intel NUC

Provider
ehost.com

Davis Vantage Pro 2

Weather Display

Intel NUC

ehost.com